TGPY/GND METAR and TAF weather

Enter ICAO airport designator
Station Type Date Time Source
TGPY METAR 2020/07/06 02:00 UTC NOAA

TGPY 060200Z 09013KT 9999 FEW018 28/24 Q1013 NOSIG


Station Type Date Time Source
TGPY Decoded METAR 2020/07/06 02:00 UTC NOAA

Point Salines Airport, Grenada (TGPY) 12-00N 061-47W 7M
Jul 05, 2020 - 10:00 PM EDT / 2020.07.06 0200 UTC
Wind: from the E (090 degrees) at 15 MPH (13 KT):0
Visibility: greater than 7 mile(s):0
Sky conditions: mostly clear
Temperature: 82 F (28 C)
Dew Point: 75 F (24 C)
Relative Humidity: 78%
Pressure (altimeter): 29.91 in. Hg (1013 hPa)
ob: TGPY 060200Z 09013KT 9999 FEW018 28/24 Q1013 NOSIG
cycle: 2

Station Type Date Time Source
TGPY TAF 2020/07/05 18:57 UTC NOAA

TAF TGPY 051600Z 0518/0618 08016KT 9999 FEW020
BECMG 0602/0604 SCT018 SCT038

Example: see airport list